sensor_id;sensor_type;location;lat;lon;timestamp;temperature;humidity
57833;DHT22;43667;53.036;6.740;2022-09-03T00:00:34;15.80;72.20
57833;DHT22;43667;53.036;6.740;2022-09-03T00:06:12;15.80;73.00
57833;DHT22;43667;53.036;6.740;2022-09-03T00:08:50;15.80;73.70
57833;DHT22;43667;53.036;6.740;2022-09-03T00:11:20;15.70;73.60
57833;DHT22;43667;53.036;6.740;2022-09-03T00:16:33;15.70;74.10
57833;DHT22;43667;53.036;6.740;2022-09-03T00:19:02;15.60;74.30
57833;DHT22;43667;53.036;6.740;2022-09-03T00:24:02;15.60;75.50
57833;DHT22;43667;53.036;6.740;2022-09-03T00:26:32;15.60;75.60
57833;DHT22;43667;53.036;6.740;2022-09-03T00:29:14;15.50;76.00
57833;DHT22;43667;53.036;6.740;2022-09-03T00:31:45;15.50;76.90
57833;DHT22;43667;53.036;6.740;2022-09-03T00:36:56;15.40;77.30
57833;DHT22;43667;53.036;6.740;2022-09-03T00:39:25;15.40;78.00
57833;DHT22;43667;53.036;6.740;2022-09-03T00:45:13;15.30;79.30
57833;DHT22;43667;53.036;6.740;2022-09-03T00:50:37;15.20;80.00
57833;DHT22;43667;53.036;6.740;2022-09-03T00:59:10;15.10;80.90
57833;DHT22;43667;53.036;6.740;2022-09-03T01:10:29;15.00;82.70
57833;DHT22;43667;53.036;6.740;2022-09-03T01:13:12;15.00;83.80
57833;DHT22;43667;53.036;6.740;2022-09-03T01:25:02;14.80;83.80
57833;DHT22;43667;53.036;6.740;2022-09-03T01:27:58;14.80;84.30
57833;DHT22;43667;53.036;6.740;2022-09-03T01:30:24;14.80;84.50
57833;DHT22;43667;53.036;6.740;2022-09-03T01:33:06;14.80;84.50
57833;DHT22;43667;53.036;6.740;2022-09-03T01:50:40;14.70;86.20
57833;DHT22;43667;53.036;6.740;2022-09-03T01:58:38;14.60;87.80
57833;DHT22;43667;53.036;6.740;2022-09-03T02:01:24;14.60;87.80
57833;DHT22;43667;53.036;6.740;2022-09-03T02:03:52;14.60;88.30
57833;DHT22;43667;53.036;6.740;2022-09-03T02:06:25;14.50;88.70
57833;DHT22;43667;53.036;6.740;2022-09-03T02:08:51;14.50;89.10
57833;DHT22;43667;53.036;6.740;2022-09-03T02:11:17;14.50;89.30
57833;DHT22;43667;53.036;6.740;2022-09-03T02:13:53;14.50;89.40
57833;DHT22;43667;53.036;6.740;2022-09-03T02:16:26;14.50;89.90
57833;DHT22;43667;53.036;6.740;2022-09-03T02:18:58;14.40;90.00
57833;DHT22;43667;53.036;6.740;2022-09-03T02:21:27;14.40;90.10
57833;DHT22;43667;53.036;6.740;2022-09-03T02:23:56;14.40;90.00
57833;DHT22;43667;53.036;6.740;2022-09-03T02:26:23;14.40;90.20
57833;DHT22;43667;53.036;6.740;2022-09-03T02:28:51;14.40;90.40
57833;DHT22;43667;53.036;6.740;2022-09-03T02:31:17;14.40;90.60
57833;DHT22;43667;53.036;6.740;2022-09-03T02:33:45;14.40;90.80
57833;DHT22;43667;53.036;6.740;2022-09-03T02:36:14;14.40;90.80
57833;DHT22;43667;53.036;6.740;2022-09-03T02:38:42;14.40;91.10
57833;DHT22;43667;53.036;6.740;2022-09-03T02:41:08;14.40;91.20
57833;DHT22;43667;53.036;6.740;2022-09-03T02:43:44;14.40;91.30
57833;DHT22;43667;53.036;6.740;2022-09-03T02:46:24;14.40;91.20
57833;DHT22;43667;53.036;6.740;2022-09-03T02:48:53;14.40;91.20
57833;DHT22;43667;53.036;6.740;2022-09-03T02:51:18;14.40;91.20
57833;DHT22;43667;53.036;6.740;2022-09-03T02:53:44;14.40;91.20
57833;DHT22;43667;53.036;6.740;2022-09-03T02:56:10;14.40;91.20
57833;DHT22;43667;53.036;6.740;2022-09-03T02:58:36;14.40;91.30
57833;DHT22;43667;53.036;6.740;2022-09-03T03:01:02;14.40;91.70
57833;DHT22;43667;53.036;6.740;2022-09-03T03:03:28;14.40;91.80
57833;DHT22;43667;53.036;6.740;2022-09-03T03:05:56;14.40;91.90
57833;DHT22;43667;53.036;6.740;2022-09-03T03:08:25;14.40;92.10
57833;DHT22;43667;53.036;6.740;2022-09-03T03:10:53;14.40;92.20
57833;DHT22;43667;53.036;6.740;2022-09-03T03:13:22;14.40;92.40
57833;DHT22;43667;53.036;6.740;2022-09-03T03:15:47;14.30;92.50
57833;DHT22;43667;53.036;6.740;2022-09-03T03:18:13;14.30;92.70
57833;DHT22;43667;53.036;6.740;2022-09-03T03:20:40;14.30;92.80
57833;DHT22;43667;53.036;6.740;2022-09-03T03:23:06;14.30;92.90
57833;DHT22;43667;53.036;6.740;2022-09-03T03:25:33;14.20;92.90
57833;DHT22;43667;53.036;6.740;2022-09-03T03:27:59;14.20;93.20
57833;DHT22;43667;53.036;6.740;2022-09-03T03:30:26;14.20;93.80
57833;DHT22;43667;53.036;6.740;2022-09-03T03:32:53;14.10;93.50
57833;DHT22;43667;53.036;6.740;2022-09-03T03:35:19;14.20;93.70
57833;DHT22;43667;53.036;6.740;2022-09-03T03:37:45;14.10;93.90
57833;DHT22;43667;53.036;6.740;2022-09-03T03:40:11;14.10;94.10
57833;DHT22;43667;53.036;6.740;2022-09-03T03:42:37;14.10;94.20
57833;DHT22;43667;53.036;6.740;2022-09-03T03:45:04;14.00;94.40
57833;DHT22;43667;53.036;6.740;2022-09-03T03:47:31;14.00;94.60
57833;DHT22;43667;53.036;6.740;2022-09-03T03:49:57;14.00;94.70
57833;DHT22;43667;53.036;6.740;2022-09-03T03:52:23;14.00;94.80
57833;DHT22;43667;53.036;6.740;2022-09-03T03:54:49;14.00;95.00
57833;DHT22;43667;53.036;6.740;2022-09-03T03:57:16;14.00;95.00
57833;DHT22;43667;53.036;6.740;2022-09-03T03:59:41;14.00;95.10
57833;DHT22;43667;53.036;6.740;2022-09-03T04:02:07;14.00;95.40
57833;DHT22;43667;53.036;6.740;2022-09-03T04:04:32;13.90;95.40
57833;DHT22;43667;53.036;6.740;2022-09-03T04:06:58;13.90;95.60
57833;DHT22;43667;53.036;6.740;2022-09-03T04:09:24;13.90;95.70
57833;DHT22;43667;53.036;6.740;2022-09-03T04:11:49;13.90;95.70
57833;DHT22;43667;53.036;6.740;2022-09-03T04:14:15;13.80;95.90
57833;DHT22;43667;53.036;6.740;2022-09-03T04:16:42;13.80;96.00
57833;DHT22;43667;53.036;6.740;2022-09-03T04:19:11;13.80;96.10
57833;DHT22;43667;53.036;6.740;2022-09-03T04:21:37;13.80;96.20
57833;DHT22;43667;53.036;6.740;2022-09-03T04:24:04;13.80;96.30
57833;DHT22;43667;53.036;6.740;2022-09-03T04:26:31;13.80;96.30
57833;DHT22;43667;53.036;6.740;2022-09-03T04:28:58;13.80;96.40
57833;DHT22;43667;53.036;6.740;2022-09-03T04:31:25;13.70;96.50
57833;DHT22;43667;53.036;6.740;2022-09-03T04:33:51;13.70;96.60
57833;DHT22;43667;53.036;6.740;2022-09-03T04:36:18;13.70;96.90
57833;DHT22;43667;53.036;6.740;2022-09-03T04:38:46;13.70;97.10
57833;DHT22;43667;53.036;6.740;2022-09-03T04:41:14;13.60;97.10
57833;DHT22;43667;53.036;6.740;2022-09-03T04:43:41;13.60;97.30
57833;DHT22;43667;53.036;6.740;2022-09-03T04:46:08;13.60;97.30
57833;DHT22;43667;53.036;6.740;2022-09-03T04:48:35;13.60;97.50
57833;DHT22;43667;53.036;6.740;2022-09-03T04:51:13;13.50;97.70
57833;DHT22;43667;53.036;6.740;2022-09-03T04:53:44;13.50;98.00
57833;DHT22;43667;53.036;6.740;2022-09-03T04:56:20;13.50;97.90
57833;DHT22;43667;53.036;6.740;2022-09-03T04:58:46;13.50;98.10
57833;DHT22;43667;53.036;6.740;2022-09-03T05:01:18;13.40;98.40
57833;DHT22;43667;53.036;6.740;2022-09-03T05:03:45;13.40;98.60
57833;DHT22;43667;53.036;6.740;2022-09-03T05:06:11;13.40;98.70
57833;DHT22;43667;53.036;6.740;2022-09-03T05:08:37;13.40;98.80
57833;DHT22;43667;53.036;6.740;2022-09-03T05:11:04;13.40;98.90
57833;DHT22;43667;53.036;6.740;2022-09-03T05:13:30;13.40;98.90
57833;DHT22;43667;53.036;6.740;2022-09-03T05:16:08;13.40;99.00
57833;DHT22;43667;53.036;6.740;2022-09-03T05:18:34;13.40;99.30
57833;DHT22;43667;53.036;6.740;2022-09-03T05:21:05;13.30;99.30
57833;DHT22;43667;53.036;6.740;2022-09-03T05:23:34;13.30;99.70
57833;DHT22;43667;53.036;6.740;2022-09-03T05:26:01;13.30;99.50
57833;DHT22;43667;53.036;6.740;2022-09-03T05:28:29;13.30;99.60
57833;DHT22;43667;53.036;6.740;2022-09-03T05:31:05;13.30;99.80
57833;DHT22;43667;53.036;6.740;2022-09-03T05:33:36;13.30;99.90
57833;DHT22;43667;53.036;6.740;2022-09-03T05:36:07;13.30;99.90
57833;DHT22;43667;53.036;6.740;2022-09-03T05:38:34;13.30;99.90
57833;DHT22;43667;53.036;6.740;2022-09-03T05:41:01;13.30;99.90
57833;DHT22;43667;53.036;6.740;2022-09-03T05:43:28;13.30;99.90
57833;DHT22;43667;53.036;6.740;2022-09-03T05:46:06;13.30;99.90
57833;DHT22;43667;53.036;6.740;2022-09-03T05:48:33;13.40;99.90
57833;DHT22;43667;53.036;6.740;2022-09-03T05:51:17;13.30;99.90
57833;DHT22;43667;53.036;6.740;2022-09-03T05:53:45;13.40;99.90
57833;DHT22;43667;53.036;6.740;2022-09-03T05:56:17;13.40;99.90
57833;DHT22;43667;53.036;6.740;2022-09-03T05:58:49;13.40;99.90
57833;DHT22;43667;53.036;6.740;2022-09-03T06:01:23;13.40;99.90
57833;DHT22;43667;53.036;6.740;2022-09-03T06:06:20;13.50;99.90
57833;DHT22;43667;53.036;6.740;2022-09-03T06:08:57;13.50;99.90
57833;DHT22;43667;53.036;6.740;2022-09-03T06:11:23;13.60;99.90
57833;DHT22;43667;53.036;6.740;2022-09-03T06:13:56;13.60;99.90
57833;DHT22;43667;53.036;6.740;2022-09-03T06:16:22;13.70;99.90
57833;DHT22;43667;53.036;6.740;2022-09-03T06:18:48;13.70;99.80
57833;DHT22;43667;53.036;6.740;2022-09-03T06:21:14;13.70;99.70
57833;DHT22;43667;53.036;6.740;2022-09-03T06:23:40;13.80;99.70
57833;DHT22;43667;53.036;6.740;2022-09-03T06:26:11;13.80;99.60
57833;DHT22;43667;53.036;6.740;2022-09-03T06:28:41;14.00;99.50
57833;DHT22;43667;53.036;6.740;2022-09-03T06:31:16;14.10;99.30
57833;DHT22;43667;53.036;6.740;2022-09-03T06:33:42;14.30;99.00
57833;DHT22;43667;53.036;6.740;2022-09-03T06:36:13;14.40;98.60
57833;DHT22;43667;53.036;6.740;2022-09-03T06:38:40;14.50;98.30
57833;DHT22;43667;53.036;6.740;2022-09-03T06:41:08;14.70;97.90
57833;DHT22;43667;53.036;6.740;2022-09-03T06:43:37;14.80;97.50
57833;DHT22;43667;53.036;6.740;2022-09-03T06:48:34;15.20;96.50
57833;DHT22;43667;53.036;6.740;2022-09-03T06:51:02;15.30;96.00
57833;DHT22;43667;53.036;6.740;2022-09-03T06:53:30;15.50;95.60
57833;DHT22;43667;53.036;6.740;2022-09-03T06:56:00;15.60;95.20
57833;DHT22;43667;53.036;6.740;2022-09-03T06:58:32;15.80;94.80
57833;DHT22;43667;53.036;6.740;2022-09-03T07:01:09;15.90;94.40
57833;DHT22;43667;53.036;6.740;2022-09-03T07:03:35;16.00;93.70
57833;DHT22;43667;53.036;6.740;2022-09-03T07:06:10;16.10;93.40
57833;DHT22;43667;53.036;6.740;2022-09-03T07:08:36;16.20;93.00
57833;DHT22;43667;53.036;6.740;2022-09-03T07:11:04;16.40;92.60
57833;DHT22;43667;53.036;6.740;2022-09-03T07:13:34;16.50;91.90
57833;DHT22;43667;53.036;6.740;2022-09-03T07:16:09;16.70;91.40
57833;DHT22;43667;53.036;6.740;2022-09-03T07:18:35;16.80;90.90
57833;DHT22;43667;53.036;6.740;2022-09-03T07:21:03;16.90;90.30
57833;DHT22;43667;53.036;6.740;2022-09-03T07:23:30;17.00;89.60
57833;DHT22;43667;53.036;6.740;2022-09-03T07:25:58;17.20;89.30
57833;DHT22;43667;53.036;6.740;2022-09-03T07:28:24;17.30;87.90
57833;DHT22;43667;53.036;6.740;2022-09-03T07:30:52;17.40;86.60
57833;DHT22;43667;53.036;6.740;2022-09-03T07:33:18;17.50;86.00
57833;DHT22;43667;53.036;6.740;2022-09-03T07:35:44;17.80;84.00
57833;DHT22;43667;53.036;6.740;2022-09-03T07:38:10;17.90;83.00
57833;DHT22;43667;53.036;6.740;2022-09-03T07:40:36;17.90;81.70
57833;DHT22;43667;53.036;6.740;2022-09-03T07:43:04;18.10;79.90
57833;DHT22;43667;53.036;6.740;2022-09-03T07:45:30;18.20;79.40
57833;DHT22;43667;53.036;6.740;2022-09-03T07:47:58;18.40;77.10
57833;DHT22;43667;53.036;6.740;2022-09-03T07:50:24;18.50;75.90
57833;DHT22;43667;53.036;6.740;2022-09-03T07:52:55;18.60;74.00
57833;DHT22;43667;53.036;6.740;2022-09-03T07:55:21;18.80;72.80
57833;DHT22;43667;53.036;6.740;2022-09-03T07:57:48;19.00;72.10
57833;DHT22;43667;53.036;6.740;2022-09-03T08:00:14;19.20;70.20
57833;DHT22;43667;53.036;6.740;2022-09-03T08:02:40;19.20;69.30
57833;DHT22;43667;53.036;6.740;2022-09-03T08:05:05;19.40;68.70
57833;DHT22;43667;53.036;6.740;2022-09-03T08:07:31;19.40;67.60
57833;DHT22;43667;53.036;6.740;2022-09-03T08:09:57;19.50;67.50
57833;DHT22;43667;53.036;6.740;2022-09-03T08:12:22;19.60;66.80
57833;DHT22;43667;53.036;6.740;2022-09-03T08:14:48;19.80;66.20
57833;DHT22;43667;53.036;6.740;2022-09-03T08:17:14;20.00;65.50
57833;DHT22;43667;53.036;6.740;2022-09-03T08:19:39;20.20;64.50
57833;DHT22;43667;53.036;6.740;2022-09-03T08:22:06;20.30;63.60
57833;DHT22;43667;53.036;6.740;2022-09-03T08:24:32;20.50;62.50
57833;DHT22;43667;53.036;6.740;2022-09-03T08:26:59;20.60;61.80
57833;DHT22;43667;53.036;6.740;2022-09-03T08:29:25;20.60;60.90
57833;DHT22;43667;53.036;6.740;2022-09-03T08:31:52;20.80;60.40
57833;DHT22;43667;53.036;6.740;2022-09-03T08:34:18;21.00;59.80
57833;DHT22;43667;53.036;6.740;2022-09-03T08:36:44;21.10;59.30
57833;DHT22;43667;53.036;6.740;2022-09-03T08:39:12;21.10;58.70
57833;DHT22;43667;53.036;6.740;2022-09-03T08:47:01;21.50;57.40
57833;DHT22;43667;53.036;6.740;2022-09-03T08:49:50;21.60;55.90
57833;DHT22;43667;53.036;6.740;2022-09-03T08:52:40;21.70;54.60
57833;DHT22;43667;53.036;6.740;2022-09-03T08:57:52;22.10;54.80
57833;DHT22;43667;53.036;6.740;2022-09-03T09:00:19;22.20;54.30
57833;DHT22;43667;53.036;6.740;2022-09-03T09:05:44;22.50;52.90
57833;DHT22;43667;53.036;6.740;2022-09-03T09:22:40;23.30;50.90
57833;DHT22;43667;53.036;6.740;2022-09-03T09:25:11;23.40;50.90
57833;DHT22;43667;53.036;6.740;2022-09-03T09:28:02;23.50;50.10
57833;DHT22;43667;53.036;6.740;2022-09-03T09:30:30;23.60;49.60
57833;DHT22;43667;53.036;6.740;2022-09-03T09:32:56;23.50;49.30
57833;DHT22;43667;53.036;6.740;2022-09-03T09:35:23;23.50;49.30
57833;DHT22;43667;53.036;6.740;2022-09-03T09:37:53;23.60;49.70
57833;DHT22;43667;53.036;6.740;2022-09-03T09:40:32;23.90;49.20
57833;DHT22;43667;53.036;6.740;2022-09-03T09:43:14;24.00;48.90
57833;DHT22;43667;53.036;6.740;2022-09-03T09:45:42;24.10;48.20
57833;DHT22;43667;53.036;6.740;2022-09-03T09:51:03;24.30;47.70
57833;DHT22;43667;53.036;6.740;2022-09-03T09:53:29;24.30;47.30
57833;DHT22;43667;53.036;6.740;2022-09-03T09:55:57;24.40;47.00
57833;DHT22;43667;53.036;6.740;2022-09-03T09:58:26;24.50;46.40
57833;DHT22;43667;53.036;6.740;2022-09-03T10:01:10;24.50;46.10
57833;DHT22;43667;53.036;6.740;2022-09-03T10:03:56;24.60;46.20
57833;DHT22;43667;53.036;6.740;2022-09-03T10:06:27;24.70;45.90
57833;DHT22;43667;53.036;6.740;2022-09-03T10:09:19;24.90;45.30
57833;DHT22;43667;53.036;6.740;2022-09-03T10:14:50;25.20;44.00
57833;DHT22;43667;53.036;6.740;2022-09-03T10:20:09;25.30;43.50
57833;DHT22;43667;53.036;6.740;2022-09-03T10:25:24;25.40;42.90
57833;DHT22;43667;53.036;6.740;2022-09-03T10:27:51;25.40;42.80
57833;DHT22;43667;53.036;6.740;2022-09-03T10:30:19;25.50;43.30
57833;DHT22;43667;53.036;6.740;2022-09-03T10:33:09;25.50;42.30
57833;DHT22;43667;53.036;6.740;2022-09-03T10:35:51;25.50;42.30
57833;DHT22;43667;53.036;6.740;2022-09-03T10:38:33;25.50;41.60
57833;DHT22;43667;53.036;6.740;2022-09-03T10:41:29;25.50;42.10
57833;DHT22;43667;53.036;6.740;2022-09-03T10:47:14;25.80;41.60
57833;DHT22;43667;53.036;6.740;2022-09-03T10:49:58;26.00;41.40
57833;DHT22;43667;53.036;6.740;2022-09-03T10:55:34;26.10;40.70
57833;DHT22;43667;53.036;6.740;2022-09-03T11:00:52;26.20;40.50
57833;DHT22;43667;53.036;6.740;2022-09-03T11:04:06;26.30;40.40
57833;DHT22;43667;53.036;6.740;2022-09-03T11:08:59;26.40;40.20
57833;DHT22;43667;53.036;6.740;2022-09-03T11:11:33;26.40;39.60
57833;DHT22;43667;53.036;6.740;2022-09-03T11:14:09;26.50;39.20
57833;DHT22;43667;53.036;6.740;2022-09-03T11:19:10;26.50;38.80
57833;DHT22;43667;53.036;6.740;2022-09-03T11:21:38;26.60;39.30
57833;DHT22;43667;53.036;6.740;2022-09-03T11:24:13;26.80;39.40
57833;DHT22;43667;53.036;6.740;2022-09-03T11:26:48;27.00;39.20
57833;DHT22;43667;53.036;6.740;2022-09-03T11:30:02;27.10;38.00
57833;DHT22;43667;53.036;6.740;2022-09-03T11:32:48;27.10;38.60
57833;DHT22;43667;53.036;6.740;2022-09-03T11:35:25;27.20;37.40
57833;DHT22;43667;53.036;6.740;2022-09-03T11:37:56;27.20;37.80
57833;DHT22;43667;53.036;6.740;2022-09-03T11:40:32;27.20;37.90
57833;DHT22;43667;53.036;6.740;2022-09-03T11:46:01;27.30;37.60
57833;DHT22;43667;53.036;6.740;2022-09-03T11:51:33;27.40;37.20
57833;DHT22;43667;53.036;6.740;2022-09-03T11:56:48;27.60;36.70
57833;DHT22;43667;53.036;6.740;2022-09-03T11:59:25;27.60;36.70
57833;DHT22;43667;53.036;6.740;2022-09-03T12:01:59;27.60;36.80
57833;DHT22;43667;53.036;6.740;2022-09-03T12:04:57;27.60;36.40
57833;DHT22;43667;53.036;6.740;2022-09-03T12:13:15;27.50;36.40
57833;DHT22;43667;53.036;6.740;2022-09-03T12:19:28;27.70;36.60
57833;DHT22;43667;53.036;6.740;2022-09-03T12:21:56;27.80;36.50
57833;DHT22;43667;53.036;6.740;2022-09-03T12:24:25;27.70;37.00
57833;DHT22;43667;53.036;6.740;2022-09-03T12:27:00;27.80;35.90
57833;DHT22;43667;53.036;6.740;2022-09-03T12:29:29;28.00;36.20
57833;DHT22;43667;53.036;6.740;2022-09-03T12:32:03;28.00;35.50
57833;DHT22;43667;53.036;6.740;2022-09-03T12:34:31;27.90;35.50
57833;DHT22;43667;53.036;6.740;2022-09-03T12:36:57;28.00;35.30
57833;DHT22;43667;53.036;6.740;2022-09-03T12:39:23;27.90;35.40
57833;DHT22;43667;53.036;6.740;2022-09-03T12:42:05;27.80;35.40
57833;DHT22;43667;53.036;6.740;2022-09-03T12:44:36;27.70;35.20
57833;DHT22;43667;53.036;6.740;2022-09-03T12:47:06;27.70;35.80
57833;DHT22;43667;53.036;6.740;2022-09-03T12:49:46;27.60;35.70
57833;DHT22;43667;53.036;6.740;2022-09-03T12:52:23;27.60;35.50
57833;DHT22;43667;53.036;6.740;2022-09-03T12:55:20;27.80;35.70
57833;DHT22;43667;53.036;6.740;2022-09-03T13:00:36;27.90;35.30
57833;DHT22;43667;53.036;6.740;2022-09-03T13:03:17;27.90;35.10
57833;DHT22;43667;53.036;6.740;2022-09-03T13:05:47;27.90;35.50
57833;DHT22;43667;53.036;6.740;2022-09-03T13:08:22;27.90;35.20
57833;DHT22;43667;53.036;6.740;2022-09-03T13:10:55;28.00;35.60
57833;DHT22;43667;53.036;6.740;2022-09-03T13:13:28;28.00;34.90
57833;DHT22;43667;53.036;6.740;2022-09-03T13:21:17;28.20;34.80
57833;DHT22;43667;53.036;6.740;2022-09-03T13:30:09;28.00;34.80
57833;DHT22;43667;53.036;6.740;2022-09-03T13:32:56;28.00;34.80
57833;DHT22;43667;53.036;6.740;2022-09-03T13:36:13;27.90;35.50
57833;DHT22;43667;53.036;6.740;2022-09-03T13:41:37;28.00;34.90
57833;DHT22;43667;53.036;6.740;2022-09-03T13:44:21;28.00;34.50
57833;DHT22;43667;53.036;6.740;2022-09-03T13:46:59;28.10;35.00
57833;DHT22;43667;53.036;6.740;2022-09-03T13:52:38;28.30;34.50
57833;DHT22;43667;53.036;6.740;2022-09-03T13:55:28;28.20;34.80
57833;DHT22;43667;53.036;6.740;2022-09-03T13:58:10;28.20;34.40
57833;DHT22;43667;53.036;6.740;2022-09-03T14:03:46;28.30;35.10
57833;DHT22;43667;53.036;6.740;2022-09-03T14:06:23;28.20;34.40
57833;DHT22;43667;53.036;6.740;2022-09-03T14:12:04;28.20;34.90
57833;DHT22;43667;53.036;6.740;2022-09-03T14:17:29;28.30;34.70
57833;DHT22;43667;53.036;6.740;2022-09-03T14:25:19;28.40;34.90
57833;DHT22;43667;53.036;6.740;2022-09-03T14:27:45;28.30;35.00
57833;DHT22;43667;53.036;6.740;2022-09-03T14:30:48;28.20;35.10
57833;DHT22;43667;53.036;6.740;2022-09-03T14:33:38;28.20;35.40
57833;DHT22;43667;53.036;6.740;2022-09-03T14:36:37;28.20;35.40
57833;DHT22;43667;53.036;6.740;2022-09-03T14:45:07;28.30;36.50
57833;DHT22;43667;53.036;6.740;2022-09-03T15:04:03;29.50;36.00
57833;DHT22;43667;53.036;6.740;2022-09-03T15:07:08;29.80;35.20
57833;DHT22;43667;53.036;6.740;2022-09-03T15:09:44;29.90;34.60
57833;DHT22;43667;53.036;6.740;2022-09-03T15:12:32;30.10;34.50
57833;DHT22;43667;53.036;6.740;2022-09-03T15:15:01;30.20;34.30
57833;DHT22;43667;53.036;6.740;2022-09-03T15:17:53;30.40;34.20
57833;DHT22;43667;53.036;6.740;2022-09-03T15:26:54;31.40;33.00
57833;DHT22;43667;53.036;6.740;2022-09-03T15:32:00;31.20;33.30
57833;DHT22;43667;53.036;6.740;2022-09-03T15:34:36;31.50;32.90
57833;DHT22;43667;53.036;6.740;2022-09-03T15:40:04;31.70;32.50
57833;DHT22;43667;53.036;6.740;2022-09-03T15:42:30;31.60;32.60
57833;DHT22;43667;53.036;6.740;2022-09-03T15:45:14;31.30;32.90
57833;DHT22;43667;53.036;6.740;2022-09-03T15:47:54;31.10;33.30
57833;DHT22;43667;53.036;6.740;2022-09-03T15:50:34;31.20;33.10
57833;DHT22;43667;53.036;6.740;2022-09-03T15:53:35;31.50;32.80
57833;DHT22;43667;53.036;6.740;2022-09-03T15:56:26;31.80;32.50
57833;DHT22;43667;53.036;6.740;2022-09-03T15:59:14;32.10;32.50
57833;DHT22;43667;53.036;6.740;2022-09-03T16:02:19;32.40;32.20
57833;DHT22;43667;53.036;6.740;2022-09-03T16:05:04;32.80;31.60
57833;DHT22;43667;53.036;6.740;2022-09-03T16:10:17;32.60;31.70
57833;DHT22;43667;53.036;6.740;2022-09-03T16:15:50;32.50;31.80
57833;DHT22;43667;53.036;6.740;2022-09-03T16:21:26;32.60;32.00
57833;DHT22;43667;53.036;6.740;2022-09-03T16:24:08;32.50;31.90
57833;DHT22;43667;53.036;6.740;2022-09-03T16:26:47;32.10;31.90
57833;DHT22;43667;53.036;6.740;2022-09-03T16:29:15;32.00;32.10
57833;DHT22;43667;53.036;6.740;2022-09-03T16:31:45;32.20;31.80
57833;DHT22;43667;53.036;6.740;2022-09-03T16:37:14;31.80;32.60
57833;DHT22;43667;53.036;6.740;2022-09-03T16:42:58;30.40;34.20
57833;DHT22;43667;53.036;6.740;2022-09-03T16:56:47;28.10;36.50
57833;DHT22;43667;53.036;6.740;2022-09-03T16:59:45;27.70;37.00
57833;DHT22;43667;53.036;6.740;2022-09-03T17:15:47;26.40;39.50
57833;DHT22;43667;53.036;6.740;2022-09-03T17:21:22;26.10;40.30
57833;DHT22;43667;53.036;6.740;2022-09-03T17:24:03;26.00;40.60
57833;DHT22;43667;53.036;6.740;2022-09-03T17:45:14;24.80;42.80
57833;DHT22;43667;53.036;6.740;2022-09-03T17:48:19;24.80;43.00
57833;DHT22;43667;53.036;6.740;2022-09-03T17:50:59;24.70;43.50
57833;DHT22;43667;53.036;6.740;2022-09-03T17:59:57;24.10;44.10
57833;DHT22;43667;53.036;6.740;2022-09-03T18:02:41;23.90;44.40
57833;DHT22;43667;53.036;6.740;2022-09-03T18:05:17;23.80;44.60
57833;DHT22;43667;53.036;6.740;2022-09-03T18:10:38;23.50;45.30
57833;DHT22;43667;53.036;6.740;2022-09-03T18:16:25;23.30;45.90
57833;DHT22;43667;53.036;6.740;2022-09-03T18:18:59;23.20;46.20
57833;DHT22;43667;53.036;6.740;2022-09-03T18:21:29;23.00;46.50
57833;DHT22;43667;53.036;6.740;2022-09-03T18:24:28;22.90;46.80
57833;DHT22;43667;53.036;6.740;2022-09-03T18:27:36;22.80;47.10
57833;DHT22;43667;53.036;6.740;2022-09-03T18:30:21;22.60;47.20
57833;DHT22;43667;53.036;6.740;2022-09-03T18:33:06;22.50;47.50
57833;DHT22;43667;53.036;6.740;2022-09-03T18:35:50;22.40;48.00
57833;DHT22;43667;53.036;6.740;2022-09-03T18:38:37;22.30;48.20
57833;DHT22;43667;53.036;6.740;2022-09-03T18:41:39;22.20;48.30
57833;DHT22;43667;53.036;6.740;2022-09-03T18:47:57;22.00;49.10
57833;DHT22;43667;53.036;6.740;2022-09-03T18:56:52;21.70;50.00
57833;DHT22;43667;53.036;6.740;2022-09-03T19:06:00;21.40;51.00
57833;DHT22;43667;53.036;6.740;2022-09-03T19:09:10;21.30;51.50
57833;DHT22;43667;53.036;6.740;2022-09-03T19:15:23;21.10;52.20
57833;DHT22;43667;53.036;6.740;2022-09-03T19:21:32;20.90;53.00
57833;DHT22;43667;53.036;6.740;2022-09-03T19:24:20;20.80;53.40
57833;DHT22;43667;53.036;6.740;2022-09-03T19:27:11;20.70;53.70
57833;DHT22;43667;53.036;6.740;2022-09-03T19:30:03;20.60;54.00
57833;DHT22;43667;53.036;6.740;2022-09-03T19:33:14;20.50;54.10
57833;DHT22;43667;53.036;6.740;2022-09-03T19:36:19;20.50;54.60
57833;DHT22;43667;53.036;6.740;2022-09-03T19:39:31;20.40;54.80
57833;DHT22;43667;53.036;6.740;2022-09-03T19:42:53;20.30;55.00
57833;DHT22;43667;53.036;6.740;2022-09-03T19:46:17;20.10;55.30
57833;DHT22;43667;53.036;6.740;2022-09-03T19:49:33;20.10;55.80
57833;DHT22;43667;53.036;6.740;2022-09-03T19:55:19;19.90;56.30
57833;DHT22;43667;53.036;6.740;2022-09-03T19:58:04;19.80;56.50
57833;DHT22;43667;53.036;6.740;2022-09-03T20:00:49;19.80;56.70
57833;DHT22;43667;53.036;6.740;2022-09-03T20:03:33;19.70;56.90
57833;DHT22;43667;53.036;6.740;2022-09-03T20:06:19;19.60;57.20
57833;DHT22;43667;53.036;6.740;2022-09-03T20:09:07;19.50;57.30
57833;DHT22;43667;53.036;6.740;2022-09-03T20:11:56;19.50;57.50
57833;DHT22;43667;53.036;6.740;2022-09-03T20:14:22;19.40;57.40
57833;DHT22;43667;53.036;6.740;2022-09-03T20:31:00;19.10;58.60
57833;DHT22;43667;53.036;6.740;2022-09-03T20:42:12;18.80;59.20
57833;DHT22;43667;53.036;6.740;2022-09-03T20:55:51;18.60;60.50
57833;DHT22;43667;53.036;6.740;2022-09-03T20:58:24;18.40;60.70
57833;DHT22;43667;53.036;6.740;2022-09-03T21:01:04;18.40;60.80
57833;DHT22;43667;53.036;6.740;2022-09-03T21:03:46;18.40;61.00
57833;DHT22;43667;53.036;6.740;2022-09-03T21:11:43;18.10;61.10
57833;DHT22;43667;53.036;6.740;2022-09-03T21:22:48;18.00;61.50
57833;DHT22;43667;53.036;6.740;2022-09-03T21:25:24;18.00;61.80
57833;DHT22;43667;53.036;6.740;2022-09-03T21:27:53;17.90;61.90
57833;DHT22;43667;53.036;6.740;2022-09-03T21:30:20;17.90;62.00
57833;DHT22;43667;53.036;6.740;2022-09-03T21:32:58;17.90;61.80
57833;DHT22;43667;53.036;6.740;2022-09-03T21:35:38;17.90;61.90
57833;DHT22;43667;53.036;6.740;2022-09-03T21:38:16;17.80;61.80
57833;DHT22;43667;53.036;6.740;2022-09-03T21:40:51;17.80;62.00
57833;DHT22;43667;53.036;6.740;2022-09-03T21:43:31;17.70;62.00
57833;DHT22;43667;53.036;6.740;2022-09-03T21:46:08;17.70;62.10
57833;DHT22;43667;53.036;6.740;2022-09-03T21:48:41;17.70;62.10
57833;DHT22;43667;53.036;6.740;2022-09-03T21:51:41;17.60;62.40
57833;DHT22;43667;53.036;6.740;2022-09-03T21:54:20;17.60;62.60
57833;DHT22;43667;53.036;6.740;2022-09-03T22:02:36;17.50;62.60
57833;DHT22;43667;53.036;6.740;2022-09-03T22:05:03;17.50;62.90
57833;DHT22;43667;53.036;6.740;2022-09-03T22:07:47;17.50;63.10
57833;DHT22;43667;53.036;6.740;2022-09-03T22:15:56;17.40;63.30
57833;DHT22;43667;53.036;6.740;2022-09-03T22:18:26;17.30;63.40